Airport View

Enter AWOS ICAO identifier for current METAR.

ex. KFNL

KBRL 080453Z AUTO 15003KT 10SM CLR 26/23 A2994 RMK AO2 SLP132 T02610228

8 Jul 2020 05:16

Frequency: 118.025

Phone: 319-752-6246

Other Area AWOS: KFSW - KMPZ - KEOK - KMQB

TAF KBRL 072320Z 0800/0824 24005KT P6SM SCT050